Time;durP1;ratioP1;P1;durP2;ratioP2;P2;SDS_P1;SDS_P2;PMS_P1;PMS_P2;Temp;Humidity;BMP_temperature;BMP_pressure;BME280_temperature;BME280_humidity;BME280_pressure;Samples;Min_cycle;Max_cycle;Signal;HPM_P1;HPM_P2
2022/04/18 00:00:06;;;;;;;7.40;4.93;;;;;;;11.56;42.74;101875.41;5057222;28;20063;-64
2022/04/18 00:02:33;;;;;;;8.70;5.22;;;;;;;11.60;42.94;101873.44;5046727;28;20061;-64
2022/04/18 00:04:59;;;;;;;5.43;4.85;;;;;;;11.57;42.44;101876.25;5037373;28;20025;-65
2022/04/18 00:07:24;;;;;;;7.50;5.40;;;;;;;11.43;42.81;101868.97;5051783;28;20505;-65
2022/04/18 00:09:50;;;;;;;6.95;5.05;;;;;;;11.50;42.12;101867.72;5051937;28;20087;-64
2022/04/18 00:12:15;;;;;;;6.25;5.03;;;;;;;11.32;42.42;101865.97;5030752;28;20037;-64
2022/04/18 00:14:41;;;;;;;6.47;5.30;;;;;;;11.38;42.58;101868.31;5036893;28;20447;-64
2022/04/18 00:17:09;;;;;;;5.43;4.93;;;;;;;11.40;42.54;101862.94;5044299;28;20039;-64
2022/04/18 00:19:36;;;;;;;8.32;5.63;;;;;;;11.36;42.26;101865.75;5041301;28;20037;-64
2022/04/18 00:22:02;;;;;;;5.80;4.97;;;;;;;11.25;42.67;101865.41;5040801;28;20388;-64
2022/04/18 00:24:29;;;;;;;5.45;4.68;;;;;;;11.08;42.89;101854.72;5032393;28;20116;-65
2022/04/18 00:26:55;;;;;;;7.95;4.93;;;;;;;11.02;43.33;101858.56;5049054;28;20029;-64
2022/04/18 00:29:20;;;;;;;6.18;5.35;;;;;;;11.06;43.16;101857.47;5038083;28;20038;-65
2022/04/18 00:31:46;;;;;;;5.95;4.97;;;;;;;10.88;43.83;101861.91;5041072;28;20026;-64
2022/04/18 00:34:12;;;;;;;5.40;4.90;;;;;;;10.92;44.26;101859.94;5058690;28;20043;-64
2022/04/18 00:36:38;;;;;;;6.30;5.63;;;;;;;10.86;44.29;101865.56;5042558;28;20493;-64
2022/04/18 00:39:03;;;;;;;9.90;5.30;;;;;;;10.90;44.63;101856.50;5045653;28;20078;-64
2022/04/18 00:41:29;;;;;;;6.60;5.10;;;;;;;10.87;44.89;101861.97;5032310;28;20128;-64
2022/04/18 00:43:55;;;;;;;7.75;5.25;;;;;;;10.76;45.13;101870.44;5032590;28;20083;-65
2022/04/18 00:46:21;;;;;;;8.30;5.18;;;;;;;10.83;45.23;101865.72;5033492;28;20124;-64
2022/04/18 00:48:48;;;;;;;5.68;4.88;;;;;;;10.57;45.31;101854.50;5032074;28;20089;-62
2022/04/18 00:51:16;;;;;;;5.60;4.70;;;;;;;10.36;45.47;101856.38;5057509;28;20051;-64
2022/04/18 00:53:43;;;;;;;5.45;4.80;;;;;;;10.52;45.29;101866.28;5047721;28;20055;-64
2022/04/18 00:56:12;;;;;;;5.97;4.95;;;;;;;10.40;44.60;101865.91;5034288;28;20113;-64
2022/04/18 00:58:39;;;;;;;4.93;4.53;;;;;;;10.42;44.79;101857.88;5048618;28;20107;-64
2022/04/18 01:01:04;;;;;;;7.18;5.28;;;;;;;10.40;44.95;101860.59;5035353;28;20357;-64
2022/04/18 01:03:30;;;;;;;5.60;5.07;;;;;;;10.33;44.98;101843.22;5031587;28;20112;-64
2022/04/18 01:06:03;;;;;;;8.27;5.53;;;;;;;10.27;45.75;101854.13;5034955;28;20033;-64
2022/04/18 01:08:31;;;;;;;6.93;4.90;;;;;;;10.22;45.87;101854.28;5032080;28;20049;-64
2022/04/18 01:10:58;;;;;;;5.75;5.18;;;;;;;10.28;45.92;101850.53;5034264;28;20036;-64
2022/04/18 01:13:24;;;;;;;6.25;5.10;;;;;;;10.18;45.93;101842.09;5050639;28;20384;-64
2022/04/18 01:15:56;;;;;;;4.80;4.35;;;;;;;10.14;45.56;101853.78;5037672;28;20033;-64
2022/04/18 01:18:24;;;;;;;6.35;5.32;;;;;;;10.15;45.78;101850.19;5041592;28;20025;-64
2022/04/18 01:20:52;;;;;;;7.70;5.70;;;;;;;10.04;46.27;101844.50;5057118;28;20045;-64
2022/04/18 01:23:18;;;;;;;5.40;4.90;;;;;;;10.08;46.34;101845.22;5054647;28;20037;-64
2022/04/18 01:31:14;;;;;;;5.78;5.22;;;;;;;9.85;46.62;101851.53;5032858;28;20048;-64
2022/04/18 01:33:39;;;;;;;5.60;5.10;;;;;;;9.86;46.89;101848.84;5032144;28;20469;-64
2022/04/18 01:36:06;;;;;;;6.80;5.55;;;;;;;9.75;47.52;101840.47;5034060;28;20098;-65
2022/04/18 01:38:34;;;;;;;6.40;5.38;;;;;;;9.75;47.97;101846.63;5049182;28;20024;-64
2022/04/18 01:40:59;;;;;;;7.10;5.50;;;;;;;9.73;47.83;101853.81;5032285;28;20040;-64
2022/04/18 01:43:25;;;;;;;6.95;5.30;;;;;;;9.64;48.01;101846.22;5039042;28;20518;-64
2022/04/18 01:45:52;;;;;;;7.22;5.07;;;;;;;9.60;48.00;101849.09;5032259;28;20044;-65
2022/04/18 01:48:17;;;;;;;5.72;5.13;;;;;;;9.54;48.33;101842.25;5051586;28;20495;-64
2022/04/18 01:50:42;;;;;;;6.03;5.40;;;;;;;9.50;48.61;101852.16;5038592;28;20034;-65
2022/04/18 01:53:12;;;;;;;8.00;5.38;;;;;;;9.35;49.00;101841.31;5014260;28;20052;-64
2022/04/18 01:55:37;;;;;;;6.88;5.07;;;;;;;9.49;48.69;101842.44;5032284;28;20040;-64
2022/04/18 01:58:05;;;;;;;6.40;5.80;;;;;;;9.33;48.86;101844.91;5032175;28;20013;-64
2022/04/18 02:00:34;;;;;;;7.47;5.40;;;;;;;9.42;48.71;101842.78;5032052;28;20033;-64
2022/04/18 02:02:59;;;;;;;7.83;5.30;;;;;;;9.39;48.93;101843.78;5047128;28;20113;-64
2022/04/18 02:05:25;;;;;;;8.00;5.70;;;;;;;9.19;49.27;101841.09;5047453;28;20037;-64
2022/04/18 02:07:51;;;;;;;7.97;5.60;;;;;;;9.21;49.16;101837.44;5046171;28;20211;-64
2022/04/18 02:10:16;;;;;;;6.10;5.50;;;;;;;9.19;49.10;101838.44;5041245;28;20461;-64
2022/04/18 02:12:42;;;;;;;6.50;5.82;;;;;;;9.04;49.79;101832.81;5035998;28;20115;-64
2022/04/18 02:15:10;;;;;;;6.90;5.00;;;;;;;9.14;49.84;101835.97;5034459;28;20040;-64
2022/04/18 02:17:38;;;;;;;6.13;4.88;;;;;;;8.99;50.52;101831.28;5031939;28;20185;-64
2022/04/18 02:20:05;;;;;;;6.00;5.28;;;;;;;9.06;50.18;101833.63;5031618;28;20025;-64
2022/04/18 02:22:33;;;;;;;6.20;5.60;;;;;;;8.96;50.77;101834.91;5048257;28;20039;-64
2022/04/18 02:24:59;;;;;;;6.05;5.45;;;;;;;8.88;50.22;101834.34;5047213;28;20035;-64
2022/04/18 02:27:25;;;;;;;7.65;5.72;;;;;;;8.86;50.95;101828.28;5030403;28;20037;-64
2022/04/18 02:29:51;;;;;;;8.77;5.38;;;;;;;8.88;50.75;101826.41;5055528;28;20395;-64
2022/04/18 02:35:06;;;;;;;8.02;5.70;;;;;;;8.85;50.46;101822.09;5034007;28;20032;-64
2022/04/18 02:37:34;;;;;;;7.93;5.22;;;;;;;8.76;50.51;101819.78;5031418;28;20030;-64
2022/04/18 02:40:00;;;;;;;6.18;5.25;;;;;;;8.73;50.62;101819.06;5047211;28;20059;-64
2022/04/18 02:42:26;;;;;;;7.93;5.40;;;;;;;8.68;50.68;101808.66;5037208;28;20029;-64
2022/04/18 02:44:52;;;;;;;7.47;5.30;;;;;;;8.72;50.90;101812.03;5048991;28;20068;-64
2022/04/18 02:47:20;;;;;;;5.80;5.20;;;;;;;8.73;50.72;101809.31;5062435;28;20048;-64
2022/04/18 02:49:45;;;;;;;5.93;5.32;;;;;;;8.57;51.03;101811.72;5056356;28;20524;-64
2022/04/18 02:52:11;;;;;;;6.60;4.90;;;;;;;8.57;50.79;101805.56;5031703;28;20120;-64
2022/04/18 02:54:37;;;;;;;9.95;5.90;;;;;;;8.43;51.36;101797.28;5034020;28;20022;-64
2022/04/18 02:57:02;;;;;;;5.97;5.43;;;;;;;8.42;51.28;101799.06;5040053;28;20172;-64
2022/04/18 02:59:28;;;;;;;6.53;5.55;;;;;;;8.30;51.83;101800.38;5046829;28;20100;-64
2022/04/18 03:01:53;;;;;;;7.40;5.55;;;;;;;8.27;51.67;101784.59;5045876;28;20029;-64
2022/04/18 03:04:18;;;;;;;7.15;5.57;;;;;;;8.27;51.62;101791.69;5048091;28;20863;-64
2022/04/18 03:06:44;;;;;;;6.55;5.50;;;;;;;8.22;51.81;101785.69;5041329;28;20029;-64
2022/04/18 03:09:09;;;;;;;7.47;5.63;;;;;;;8.18;52.02;101787.59;5032099;28;20021;-64
2022/04/18 03:11:34;;;;;;;8.10;5.78;;;;;;;8.13;51.88;101776.28;5059289;28;20028;-64
2022/04/18 03:14:00;;;;;;;7.85;6.13;;;;;;;8.12;51.93;101787.81;5056126;28;20369;-64
2022/04/18 03:16:25;;;;;;;9.32;6.40;;;;;;;8.12;51.64;101782.53;5042858;28;20484;-64
2022/04/18 03:18:51;;;;;;;11.70;7.38;;;;;;;8.05;51.83;101779.22;5029388;28;20026;-64
2022/04/18 03:21:16;;;;;;;9.38;8.02;;;;;;;8.02;51.86;101786.44;5053358;28;20083;-64
2022/04/18 03:23:44;;;;;;;11.40;8.88;;;;;;;8.05;51.50;101781.00;5026696;28;20029;-64
2022/04/18 03:26:10;;;;;;;14.32;9.95;;;;;;;7.87;51.91;101764.88;5059225;28;20102;-64
2022/04/18 03:28:36;;;;;;;17.50;11.18;;;;;;;8.02;52.12;101781.13;5030740;28;20021;-64
2022/04/18 03:31:04;;;;;;;17.00;11.20;;;;;;;8.04;52.12;101790.75;5031778;28;20074;-64
2022/04/18 03:33:29;;;;;;;21.83;14.32;;;;;;;7.93;52.17;101784.97;5035038;28;20483;-64
2022/04/18 03:41:23;;;;;;;23.60;15.63;;;;;;;7.91;52.55;101794.75;5032249;28;20044;-64
2022/04/18 03:43:50;;;;;;;19.20;14.55;;;;;;;7.79;53.02;101788.13;5027646;28;20022;-64
2022/04/18 03:46:16;;;;;;;24.48;14.95;;;;;;;7.70;52.76;101784.03;5029836;28;20370;-64
2022/04/18 03:48:41;;;;;;;19.67;13.23;;;;;;;7.73;53.02;101789.25;5045392;28;20029;-64
2022/04/18 03:51:07;;;;;;;18.55;12.77;;;;;;;7.65;53.72;101793.06;5046795;28;20038;-64
2022/04/18 03:53:34;;;;;;;20.95;13.40;;;;;;;7.74;53.61;101788.31;5037943;28;20033;-65
2022/04/18 03:56:00;;;;;;;23.42;14.60;;;;;;;7.74;53.12;101783.00;5031049;28;20498;-64
2022/04/18 03:58:25;;;;;;;24.83;14.88;;;;;;;7.73;53.18;101783.94;5017010;28;20021;-64
2022/04/18 04:00:51;;;;;;;24.10;14.82;;;;;;;7.57;53.25;101790.69;5039569;28;20036;-64
2022/04/18 04:03:16;;;;;;;25.00;15.60;;;;;;;7.58;53.26;101788.91;5035032;28;20025;-64
2022/04/18 04:05:44;;;;;;;23.35;15.57;;;;;;;7.48;53.61;101794.53;5031736;28;20029;-64
2022/04/18 04:08:09;;;;;;;24.65;17.58;;;;;;;7.49;53.79;101784.78;5046508;28;20071;-64
2022/04/18 04:10:35;;;;;;;28.77;19.25;;;;;;;7.42;53.75;101791.22;5052950;28;20495;-64
2022/04/18 04:13:04;;;;;;;31.83;18.15;;;;;;;7.46;53.41;101784.91;5055340;28;20025;-64
2022/04/18 04:15:31;;;;;;;29.42;18.90;;;;;;;7.49;53.59;101788.31;5049498;28;20112;-65
2022/04/18 04:17:57;;;;;;;31.25;19.83;;;;;;;7.46;53.99;101779.59;5033222;28;20385;-64
2022/04/18 04:20:23;;;;;;;28.15;19.65;;;;;;;7.45;53.64;101783.19;5049613;28;20057;-64
2022/04/18 04:22:52;;;;;;;30.45;20.85;;;;;;;7.31;54.71;101781.00;5048958;28;20029;-64
2022/04/18 04:25:20;;;;;;;29.45;20.73;;;;;;;7.27;54.47;101767.03;5035328;28;20029;-64
2022/04/18 04:27:46;;;;;;;31.20;19.30;;;;;;;7.34;54.32;101766.81;5037887;28;20030;-64
2022/04/18 04:30:12;;;;;;;24.33;18.77;;;;;;;7.42;54.40;101781.50;5032070;28;20030;-64
2022/04/18 04:32:37;;;;;;;28.75;20.00;;;;;;;7.33;54.55;101776.53;5051212;28;21089;-64
2022/04/18 04:35:04;;;;;;;31.45;19.60;;;;;;;7.28;55.22;101786.41;5038098;28;20404;-64
2022/04/18 04:37:29;;;;;;;32.38;20.73;;;;;;;7.15;55.84;101780.69;5048902;28;20144;-64
2022/04/18 04:39:57;;;;;;;32.40;20.15;;;;;;;7.24;55.12;101783.00;5037390;28;20033;-64
2022/04/18 04:42:23;;;;;;;29.80;20.52;;;;;;;7.20;55.26;101784.00;5033024;28;20389;-64
2022/04/18 04:44:48;;;;;;;32.30;20.55;;;;;;;7.13;55.66;101774.56;5034496;28;20031;-64
2022/04/18 04:47:17;;;;;;;31.48;21.48;;;;;;;7.09;55.38;101783.53;5039113;28;20033;-64
2022/04/18 04:49:43;;;;;;;31.88;20.63;;;;;;;7.13;55.42;101786.94;5033151;28;20033;-64
2022/04/18 04:52:11;;;;;;;28.40;20.63;;;;;;;7.13;55.96;101792.22;5051408;28;20388;-64
2022/04/18 04:54:36;;;;;;;30.00;20.75;;;;;;;7.05;55.96;101784.53;5032915;28;20022;-64
2022/04/18 04:57:02;;;;;;;31.25;20.73;;;;;;;7.11;55.96;101799.34;5038985;28;20095;-64
2022/04/18 04:59:28;;;;;;;28.77;19.67;;;;;;;7.09;55.22;101794.13;5043562;28;20077;-64
2022/04/18 05:01:55;;;;;;;28.02;19.83;;;;;;;6.96;55.60;101780.41;5048579;28;20438;-64
2022/04/18 05:04:24;;;;;;;24.77;17.05;;;;;;;7.00;55.06;101794.38;5042725;28;20143;-64
2022/04/18 05:06:49;;;;;;;25.17;17.23;;;;;;;7.03;54.82;101795.19;5031578;28;20132;-65
2022/04/18 05:09:15;;;;;;;22.80;15.90;;;;;;;7.08;54.80;101789.72;5048433;28;20184;-64
2022/04/18 05:11:40;;;;;;;21.15;16.30;;;;;;;7.10;55.20;101790.53;5051285;28;20064;-64
2022/04/18 05:14:06;;;;;;;20.83;14.85;;;;;;;7.09;55.06;101799.41;5050094;28;20040;-64
2022/04/18 05:16:34;;;;;;;19.70;14.13;;;;;;;7.22;55.14;101791.91;5047259;28;20766;-64
2022/04/18 05:18:59;;;;;;;19.85;12.65;;;;;;;7.21;54.58;101795.47;5047672;28;20745;-64
2022/04/18 05:21:27;;;;;;;15.18;12.07;;;;;;;7.15;54.97;101800.97;5033338;28;20045;-64
2022/04/18 05:23:52;;;;;;;13.43;11.35;;;;;;;7.13;55.04;101794.88;5031249;28;20053;-64
2022/04/18 05:26:18;;;;;;;12.05;9.30;;;;;;;7.39;54.12;101791.34;5020453;28;20038;-64
2022/04/18 05:28:43;;;;;;;10.55;7.50;;;;;;;7.45;52.33;101789.34;5050026;28;20040;-64
2022/04/18 05:31:09;;;;;;;8.02;7.22;;;;;;;7.58;51.87;101794.19;5047894;28;20389;-64
2022/04/18 05:33:35;;;;;;;7.03;6.20;;;;;;;7.79;50.70;101793.41;5051617;28;20025;-64
2022/04/18 05:36:03;;;;;;;7.05;5.95;;;;;;;7.99;49.14;101795.34;5039959;28;20029;-64
2022/04/18 05:38:32;;;;;;;8.00;6.82;;;;;;;8.07;50.38;101795.94;5029166;28;20124;-65
2022/04/18 05:40:58;;;;;;;6.85;5.80;;;;;;;8.19;48.63;101803.41;5032483;28;20037;-64
2022/04/18 05:43:23;;;;;;;8.18;5.82;;;;;;;8.36;48.09;101797.47;5034135;28;20435;-64
2022/04/18 05:45:52;;;;;;;6.32;5.72;;;;;;;8.51;48.00;101804.00;5051893;28;20040;-64
2022/04/18 05:48:18;;;;;;;7.65;5.78;;;;;;;8.61;48.28;101804.50;5036080;28;20452;-65
2022/04/18 05:50:47;;;;;;;7.25;5.38;;;;;;;8.74;46.99;101803.09;5047504;28;20025;-64
2022/04/18 05:53:14;;;;;;;6.20;5.57;;;;;;;8.85;46.73;101800.00;5031687;28;20025;-64
2022/04/18 05:55:39;;;;;;;6.97;5.03;;;;;;;8.90;46.60;101795.38;5047100;28;20026;-64
2022/04/18 05:58:06;;;;;;;8.02;5.60;;;;;;;9.06;46.13;101804.44;5044177;28;20017;-64
2022/04/18 06:00:35;;;;;;;7.30;5.80;;;;;;;9.15;45.83;101800.53;5037236;28;20040;-64
2022/04/18 06:03:03;;;;;;;6.22;5.20;;;;;;;9.24;45.42;101807.25;5061800;28;20514;-64
2022/04/18 06:05:29;;;;;;;5.50;5.00;;;;;;;9.36;45.34;101806.75;5047608;28;20033;-65
2022/04/18 06:07:59;;;;;;;10.20;5.07;;;;;;;9.45;44.93;101810.78;5033102;28;20051;-64
2022/04/18 06:10:24;;;;;;;;;;;;;;;9.61;45.05;101805.66;5039014;28;20041;-64
2022/04/18 06:12:50;;;;;;;6.85;5.00;;;;;;;9.64;44.66;101811.72;5063607;28;19936;-64
2022/04/18 06:15:16;;;;;;;7.65;5.53;;;;;;;9.75;44.63;101813.91;5038334;28;20040;-64
2022/04/18 06:17:44;;;;;;;5.88;5.28;;;;;;;9.83;43.50;101814.44;5031859;28;20018;-65
2022/04/18 06:20:11;;;;;;;7.97;5.47;;;;;;;9.88;43.14;101812.44;5051800;28;20029;-65
2022/04/18 06:22:37;;;;;;;8.93;5.10;;;;;;;9.95;43.13;101803.25;5030400;28;20492;-65
2022/04/18 06:25:03;;;;;;;5.47;4.95;;;;;;;10.06;43.13;101804.53;5031633;28;20025;-65
2022/04/18 06:27:28;;;;;;;5.90;5.28;;;;;;;10.19;43.16;101808.38;5013477;28;20052;-64
2022/04/18 06:29:54;;;;;;;7.95;5.57;;;;;;;10.32;43.05;101811.34;5046629;28;20064;-64
2022/04/18 06:32:21;;;;;;;6.18;5.57;;;;;;;10.42;43.15;101805.56;5031028;28;20128;-64
2022/04/18 06:34:46;;;;;;;6.13;5.22;;;;;;;10.60;42.99;101809.13;5036219;28;20159;-64
2022/04/18 06:37:12;;;;;;;5.65;4.93;;;;;;;10.67;42.13;101805.22;5031225;28;20459;-65
2022/04/18 06:39:40;;;;;;;7.88;4.90;;;;;;;10.83;42.72;101809.84;5030856;28;20021;-64
2022/04/18 06:42:06;;;;;;;7.88;4.80;;;;;;;11.00;40.82;101809.88;5030222;28;20113;-64
2022/04/18 06:44:32;;;;;;;7.03;5.53;;;;;;;11.12;40.58;101809.25;5051253;28;20510;-65
2022/04/18 06:46:57;;;;;;;5.20;4.70;;;;;;;11.22;40.56;101814.13;5050199;28;20067;-64
2022/04/18 06:49:23;;;;;;;7.53;5.05;;;;;;;11.44;40.13;101808.56;5015683;28;20492;-65
2022/04/18 06:51:48;;;;;;;6.97;4.90;;;;;;;11.64;40.49;101805.72;5054493;28;20041;-65
2022/04/18 06:54:14;;;;;;;7.15;4.38;;;;;;;11.77;40.04;101813.94;5033089;28;20037;-65
2022/04/18 06:59:24;;;;;;;5.43;4.82;;;;;;;12.11;39.38;101804.19;5031247;28;20048;-64
2022/04/18 07:01:49;;;;;;;5.68;4.43;;;;;;;12.21;38.17;101797.41;5013207;28;20417;-65
2022/04/18 07:04:15;;;;;;;6.07;4.68;;;;;;;12.35;38.31;101800.16;5029408;28;20413;-64
2022/04/18 07:06:41;;;;;;;5.18;4.57;;;;;;;12.46;38.28;101795.09;5030635;28;20036;-65
2022/04/18 07:09:07;;;;;;;6.15;4.35;;;;;;;12.54;37.89;101801.81;5050287;28;20034;-64
2022/04/18 07:11:36;;;;;;;5.38;4.47;;;;;;;12.67;37.98;101801.03;5030570;28;20496;-65
2022/04/18 07:14:02;;;;;;;7.40;4.20;;;;;;;12.72;36.91;101787.44;5048111;28;20546;-64
2022/04/18 07:16:30;;;;;;;6.72;3.90;;;;;;;12.89;37.48;101807.84;5030453;28;20033;-65
2022/04/18 07:18:57;;;;;;;5.47;3.53;;;;;;;12.93;36.76;101796.88;5029893;28;20439;-65
2022/04/18 07:21:23;;;;;;;6.50;3.92;;;;;;;13.08;36.86;101803.13;5034221;28;20075;-65
2022/04/18 07:23:48;;;;;;;3.95;3.65;;;;;;;13.21;36.34;101803.28;5046999;28;20396;-65
2022/04/18 07:26:14;;;;;;;5.38;3.70;;;;;;;13.31;35.50;101793.81;5046963;28;20072;-64
2022/04/18 07:28:39;;;;;;;4.78;3.70;;;;;;;13.50;35.79;101792.69;5033077;28;20588;-65
2022/04/18 07:31:06;;;;;;;4.43;3.47;;;;;;;13.73;36.42;101789.47;5028458;28;20036;-65
2022/04/18 07:33:35;;;;;;;4.82;4.35;;;;;;;13.87;35.23;101785.97;5036617;28;20021;-65
2022/04/18 07:36:02;;;;;;;4.40;4.00;;;;;;;14.04;36.91;101784.94;5017734;28;20025;-65
2022/04/18 07:41:14;;;;;;;5.60;3.47;;;;;;;14.34;35.10;101778.59;5033365;28;20159;-65
2022/04/18 07:43:40;;;;;;;4.68;3.63;;;;;;;14.43;34.71;101784.19;5039656;28;20057;-65
2022/04/18 07:46:07;;;;;;;4.18;3.70;;;;;;;14.55;34.58;101785.25;5049567;28;20052;-65
2022/04/18 07:48:34;;;;;;;4.95;3.60;;;;;;;14.65;33.89;101788.22;5033600;28;20186;-65
2022/04/18 07:53:46;;;;;;;4.75;3.90;;;;;;;14.68;33.11;101775.50;5032297;28;20048;-65
2022/04/18 07:56:14;;;;;;;7.85;3.80;;;;;;;14.82;32.88;101779.06;5049260;28;20021;-66
2022/04/18 07:58:40;;;;;;;4.00;3.60;;;;;;;14.75;32.28;101776.78;5035230;28;20045;-65
2022/04/18 08:01:05;;;;;;;4.20;3.70;;;;;;;14.93;33.49;101780.06;5033790;28;20082;-66
2022/04/18 08:03:35;;;;;;;4.45;3.45;;;;;;;15.17;32.56;101774.88;5035772;28;20044;-65
2022/04/18 08:06:00;;;;;;;4.78;3.20;;;;;;;15.31;32.36;101771.28;5031850;28;20040;-65
2022/04/18 08:08:26;;;;;;;4.07;3.60;;;;;;;15.25;30.84;101769.00;5032003;28;20046;-65
2022/04/18 08:10:52;;;;;;;3.80;3.50;;;;;;;15.27;31.35;101771.59;5034174;28;20033;-65
2022/04/18 08:13:17;;;;;;;3.83;3.20;;;;;;;15.44;30.81;101782.88;5033824;28;20029;-65
2022/04/18 08:15:43;;;;;;;4.75;3.65;;;;;;;15.56;31.18;101773.13;5037078;28;20059;-66
2022/04/18 08:18:08;;;;;;;4.28;3.63;;;;;;;15.82;31.12;101782.06;5033528;28;20025;-66
2022/04/18 08:20:34;;;;;;;4.75;3.72;;;;;;;15.75;29.94;101783.47;5053561;28;20392;-66
2022/04/18 08:23:00;;;;;;;4.88;3.03;;;;;;;15.72;30.07;101791.72;5032653;28;20037;-65
2022/04/18 08:25:25;;;;;;;5.13;3.72;;;;;;;15.84;30.36;101776.59;5047799;28;20048;-65
2022/04/18 08:27:51;;;;;;;3.40;3.10;;;;;;;15.90;29.59;101768.97;5049688;28;20064;-66
2022/04/18 08:30:17;;;;;;;8.75;3.60;;;;;;;15.89;29.44;101787.88;5031745;28;20026;-66
2022/04/18 08:32:43;;;;;;;3.83;3.20;;;;;;;15.76;30.92;101785.16;5032626;28;20088;-66
2022/04/18 08:35:10;;;;;;;4.78;3.30;;;;;;;15.72;29.70;101789.03;5047268;28;20033;-65
2022/04/18 08:37:38;;;;;;;4.65;3.60;;;;;;;15.84;30.33;101779.28;5031524;28;20538;-65
2022/04/18 08:40:07;;;;;;;5.20;3.35;;;;;;;15.98;29.78;101781.84;5032584;28;20103;-65
2022/04/18 08:42:34;;;;;;;8.23;3.83;;;;;;;16.03;29.77;101773.44;5031631;28;20033;-65
2022/04/18 08:45:08;;;;;;;3.58;3.28;;;;;;;16.19;29.36;101786.66;5047293;28;20024;-64
2022/04/18 08:53:03;;;;;;;4.22;3.25;;;;;;;16.38;28.66;101781.66;5045249;28;20044;-65
2022/04/18 08:55:29;;;;;;;4.13;3.22;;;;;;;16.46;28.82;101779.28;5051463;28;20036;-66
2022/04/18 08:57:55;;;;;;;5.25;3.40;;;;;;;16.51;28.52;101773.59;5036540;28;20021;-66
2022/04/18 09:00:20;;;;;;;4.50;3.50;;;;;;;16.65;28.30;101770.75;5054967;28;20027;-67
2022/04/18 09:02:45;;;;;;;3.53;3.22;;;;;;;16.83;29.06;101776.59;5048987;28;20030;-67
2022/04/18 09:05:12;;;;;;;3.97;3.28;;;;;;;16.98;29.07;101775.44;5048633;28;20025;-67
2022/04/18 09:07:43;;;;;;;3.58;3.28;;;;;;;16.91;28.14;101776.00;5048499;28;20045;-65
2022/04/18 09:10:09;;;;;;;6.05;3.10;;;;;;;17.01;28.92;101779.75;5048521;28;20459;-66
2022/04/18 09:12:42;;;;;;;4.47;3.42;;;;;;;17.14;28.32;101779.66;5034564;28;20024;-65
2022/04/18 09:15:11;;;;;;;6.70;3.25;;;;;;;17.06;28.13;101785.63;5030624;28;20068;-66
2022/04/18 09:17:37;;;;;;;3.53;2.97;;;;;;;17.14;28.01;101776.97;5040553;28;20104;-66
2022/04/18 09:20:11;;;;;;;4.47;4.00;;;;;;;17.06;28.59;101769.50;5042066;28;20117;-65
2022/04/18 09:22:47;;;;;;;4.18;3.40;;;;;;;17.12;28.72;101768.16;5028040;28;20111;-65
2022/04/18 09:25:24;;;;;;;5.45;3.85;;;;;;;17.23;28.45;101766.34;5050194;28;20026;-65
2022/04/18 09:27:49;;;;;;;4.40;3.50;;;;;;;17.24;28.11;101769.94;5033822;28;20448;-66
2022/04/18 09:30:18;;;;;;;3.47;3.00;;;;;;;17.51;29.32;101769.63;5034044;28;20064;-66
2022/04/18 09:32:55;;;;;;;3.88;3.47;;;;;;;17.55;28.63;101767.56;5032906;28;20481;-65
2022/04/18 09:35:27;;;;;;;5.65;3.60;;;;;;;17.76;29.51;101770.38;5047437;28;20075;-66
2022/04/18 09:37:58;;;;;;;5.75;3.50;;;;;;;17.73;27.53;101763.41;5032185;28;20140;-66
2022/04/18 09:40:26;;;;;;;6.03;3.63;;;;;;;17.83;28.77;101758.22;5046998;28;20028;-65
2022/04/18 09:42:55;;;;;;;6.25;3.67;;;;;;;17.79;27.59;101757.56;5050763;28;20087;-65
2022/04/18 09:45:24;;;;;;;5.78;3.70;;;;;;;17.95;28.68;101751.00;5049370;28;20037;-65
2022/04/18 09:47:54;;;;;;;4.15;3.47;;;;;;;18.03;27.35;101751.22;5049541;28;20060;-65
2022/04/18 09:53:14;;;;;;;4.82;3.55;;;;;;;18.20;26.50;101753.41;5040916;28;20043;-65
2022/04/18 09:55:44;;;;;;;3.67;3.25;;;;;;;18.49;27.38;101748.34;5052049;28;20017;-65
2022/04/18 09:58:11;;;;;;;3.65;3.25;;;;;;;18.49;26.35;101745.66;5052227;28;20031;-65
2022/04/18 10:00:36;;;;;;;5.18;3.33;;;;;;;18.58;25.58;101747.59;5050508;28;20025;-65
2022/04/18 10:03:02;;;;;;;4.38;3.50;;;;;;;18.37;25.43;101739.44;5063298;28;20063;-65
2022/04/18 10:05:28;;;;;;;5.28;3.28;;;;;;;18.67;25.66;101750.50;5032123;28;20469;-65
2022/04/18 10:08:03;;;;;;;4.28;3.35;;;;;;;18.65;25.66;101747.94;5031112;28;20057;-66
2022/04/18 10:10:30;;;;;;;4.45;3.70;;;;;;;18.74;27.41;101744.53;5042256;28;20060;-65
2022/04/18 10:12:56;;;;;;;8.70;3.70;;;;;;;18.84;26.33;101745.44;5067347;28;20511;-65
2022/04/18 10:15:23;;;;;;;4.47;3.95;;;;;;;19.04;25.99;101734.84;5050355;28;20045;-65
2022/04/18 10:17:49;;;;;;;4.80;3.53;;;;;;;19.35;24.34;101738.44;5042866;28;20538;-65
2022/04/18 10:20:53;;;;;;;6.82;3.50;;;;;;;19.48;23.92;101741.81;5031603;28;20037;-65
2022/04/18 10:23:21;;;;;;;4.50;3.38;;;;;;;19.49;23.17;101729.16;5060141;28;20025;-65
2022/04/18 10:26:11;;;;;;;4.10;3.57;;;;;;;19.71;24.06;101729.03;5051626;28;20440;-65
2022/04/18 10:28:41;;;;;;;6.35;3.65;;;;;;;19.62;23.11;101728.94;5029386;28;20129;-66
2022/04/18 10:31:35;;;;;;;4.57;3.83;;;;;;;19.63;23.91;101720.72;5045101;28;20469;-66
2022/04/18 10:34:01;;;;;;;4.10;3.55;;;;;;;19.78;24.54;101717.72;5047227;28;20086;-65
2022/04/18 10:36:31;;;;;;;4.20;3.63;;;;;;;19.83;24.51;101715.47;5051588;28;20033;-65
2022/04/18 10:39:00;;;;;;;6.32;3.72;;;;;;;19.86;23.50;101710.63;5051022;28;20021;-66
2022/04/18 10:41:37;;;;;;;7.03;3.80;;;;;;;19.93;23.57;101711.78;5044677;28;20108;-65
2022/04/18 10:44:12;;;;;;;4.15;3.67;;;;;;;19.89;22.54;101710.38;5033448;28;20078;-65
2022/04/18 10:47:05;;;;;;;5.32;3.83;;;;;;;19.80;22.55;101704.94;5051173;28;20018;-66
2022/04/18 10:49:35;;;;;;;3.75;3.25;;;;;;;20.08;23.17;101698.75;5029017;28;20439;-65
2022/04/18 10:52:09;;;;;;;5.93;3.50;;;;;;;20.24;23.05;101705.50;5042729;28;20035;-66
2022/04/18 10:54:37;;;;;;;6.13;3.67;;;;;;;20.16;22.74;101700.78;5050982;28;20052;-66
2022/04/18 10:57:14;;;;;;;5.57;4.43;;;;;;;20.40;22.50;101703.94;5051221;28;20032;-66
2022/04/18 10:59:54;;;;;;;4.38;3.97;;;;;;;20.82;22.24;101703.75;5048286;28;20037;-66
2022/04/18 11:02:44;;;;;;;4.95;3.35;;;;;;;20.95;22.06;101698.03;5029500;28;20171;-65
2022/04/18 11:05:38;;;;;;;5.57;3.70;;;;;;;21.02;21.73;101696.44;5048746;28;20506;-66
2022/04/18 11:08:24;;;;;;;5.40;3.10;;;;;;;21.27;23.13;101695.00;5017823;28;20042;-66
2022/04/18 11:10:54;;;;;;;4.43;3.67;;;;;;;21.30;21.19;101700.13;5005756;28;20045;-66
2022/04/18 11:13:26;;;;;;;6.07;3.97;;;;;;;21.45;22.32;101686.16;4997297;28;20045;-66
2022/04/18 11:15:52;;;;;;;6.28;3.65;;;;;;;21.51;21.18;101685.56;5010673;28;20052;-66
2022/04/18 11:18:29;;;;;;;5.60;3.65;;;;;;;21.76;21.34;101684.03;4999464;28;20038;-66
2022/04/18 11:20:55;;;;;;;4.70;3.53;;;;;;;21.94;22.04;101675.97;5008965;28;20042;-66
2022/04/18 11:23:32;;;;;;;6.68;3.97;;;;;;;22.23;21.42;101681.25;5026732;28;20052;-66
2022/04/18 11:25:59;;;;;;;5.03;3.53;;;;;;;22.30;20.90;101676.94;5012317;28;20042;-66
2022/04/18 11:28:34;;;;;;;4.53;3.38;;;;;;;22.23;21.30;101678.53;5027995;28;20048;-66
2022/04/18 11:31:06;;;;;;;6.32;3.20;;;;;;;22.61;20.28;101679.25;5028651;28;20045;-66
2022/04/18 11:33:38;;;;;;;5.53;2.97;;;;;;;22.93;21.32;101673.25;5028407;28;20430;-66
2022/04/18 11:36:05;;;;;;;3.72;3.10;;;;;;;23.38;20.29;101672.25;5028469;28;20083;-66
2022/04/18 11:38:34;;;;;;;5.00;3.40;;;;;;;23.32;19.55;101672.88;5011915;28;20029;-66
2022/04/18 11:41:00;;;;;;;4.13;3.10;;;;;;;23.56;19.94;101661.34;5029941;28;20029;-66
2022/04/18 11:43:25;;;;;;;4.97;3.30;;;;;;;24.00;19.37;101661.19;5030432;28;20042;-66
2022/04/18 11:45:51;;;;;;;3.78;3.25;;;;;;;24.46;18.90;101669.84;5040429;28;20037;-66
2022/04/18 11:48:22;;;;;;;3.55;3.25;;;;;;;25.00;18.89;101672.06;5012290;28;20026;-66
2022/04/18 11:50:47;;;;;;;3.95;3.25;;;;;;;25.21;18.16;101668.81;5032851;28;20381;-66
2022/04/18 11:53:13;;;;;;;6.90;3.65;;;;;;;25.11;17.47;101661.66;5047513;28;20025;-66
2022/04/18 11:55:43;;;;;;;5.00;3.78;;;;;;;25.27;17.98;101670.88;5043385;28;20162;-67
2022/04/18 11:58:13;;;;;;;5.25;3.33;;;;;;;25.42;17.32;101663.69;5030216;28;20025;-66